Time;durP1;ratioP1;P1;durP2;ratioP2;P2;SDS_P1;SDS_P2;PMS_P1;PMS_P2;Temp;Humidity;BMP_temperature;BMP_pressure;BME280_temperature;BME280_humidity;BME280_pressure;Samples;Min_cycle;Max_cycle;Signal;HPM_P1;HPM_P2
2020/12/22 00:01:23;;;;;;;2.43;2.23;;;11.90;65.70;;;;;;5063663;28;20201;-70
2020/12/22 00:03:50;;;;;;;2.03;1.93;;;11.90;65.00;;;;;;5065924;28;20213;-69
2020/12/22 00:06:23;;;;;;;2.67;2.47;;;11.90;65.10;;;;;;5066705;28;20208;-70
2020/12/22 00:08:50;;;;;;;2.10;1.97;;;11.80;65.20;;;;;;5065216;28;20208;-72
2020/12/22 00:11:19;;;;;;;2.23;1.97;;;11.90;65.10;;;;;;5067053;28;20201;-70
2020/12/22 00:13:46;;;;;;;2.57;2.37;;;11.80;65.90;;;;;;5073795;28;20213;-70
2020/12/22 00:16:12;;;;;;;2.40;2.20;;;11.80;65.30;;;;;;5072259;28;20658;-71
2020/12/22 00:18:39;;;;;;;2.80;2.60;;;11.80;65.30;;;;;;5071357;28;20212;-69
2020/12/22 00:21:07;;;;;;;2.30;2.13;;;11.80;65.30;;;;;;5069297;28;20244;-70
2020/12/22 00:23:33;;;;;;;2.33;2.13;;;11.80;65.40;;;;;;5069963;28;20287;-70
2020/12/22 00:26:00;;;;;;;2.37;2.17;;;11.80;65.60;;;;;;5070807;28;20219;-70
2020/12/22 00:28:26;;;;;;;2.67;2.47;;;11.80;65.90;;;;;;5069211;28;20219;-71
2020/12/22 00:30:53;;;;;;;2.53;2.33;;;11.80;66.10;;;;;;5069253;28;20251;-71
2020/12/22 00:33:20;;;;;;;2.50;2.30;;;11.80;66.30;;;;;;5070186;28;20322;-70
2020/12/22 00:35:47;;;;;;;2.50;2.30;;;11.80;66.50;;;;;;5069924;28;20287;-72
2020/12/22 00:38:14;;;;;;;2.07;1.97;;;11.80;66.60;;;;;;5069422;28;20289;-71
2020/12/22 00:40:40;;;;;;;2.57;2.13;;;11.80;66.70;;;;;;5069014;28;20221;-70
2020/12/22 00:43:10;;;;;;;2.00;1.90;;;11.70;66.70;;;;;;5069077;28;20280;-70
2020/12/22 00:45:38;;;;;;;2.03;1.80;;;11.70;67.00;;;;;;5068196;28;20639;-70
2020/12/22 00:48:04;;;;;;;2.20;2.00;;;11.70;67.30;;;;;;5067977;28;20731;-70
2020/12/22 00:50:31;;;;;;;2.00;1.90;;;11.70;67.50;;;;;;5067905;28;20255;-70
2020/12/22 00:52:57;;;;;;;1.70;1.60;;;11.70;67.60;;;;;;5067771;28;20247;-71
2020/12/22 00:55:25;;;;;;;1.70;1.60;;;11.70;67.70;;;;;;5068584;28;20215;-71
2020/12/22 00:57:52;;;;;;;1.50;1.40;;;11.70;67.90;;;;;;5069049;28;20201;-71
2020/12/22 01:00:20;;;;;;;1.53;1.43;;;11.70;68.00;;;;;;5067950;28;20232;-72
2020/12/22 01:02:46;;;;;;;1.80;1.70;;;11.70;67.90;;;;;;5068398;28;20600;-71
2020/12/22 01:05:13;;;;;;;1.40;1.30;;;11.70;68.10;;;;;;5068548;28;21035;-72
2020/12/22 01:07:39;;;;;;;1.63;1.37;;;11.70;68.20;;;;;;5067891;28;20201;-72
2020/12/22 01:10:06;;;;;;;1.30;1.20;;;11.70;68.40;;;;;;5066769;28;20309;-72
2020/12/22 01:12:33;;;;;;;1.53;1.43;;;11.70;68.60;;;;;;5066405;28;20225;-71
2020/12/22 01:14:59;;;;;;;1.20;1.20;;;11.70;68.70;;;;;;5068446;28;20216;-70
2020/12/22 01:17:26;;;;;;;1.30;1.20;;;11.80;68.80;;;;;;5067030;28;20227;-70
2020/12/22 01:19:53;;;;;;;1.33;1.23;;;11.80;69.00;;;;;;5067122;28;20305;-70
2020/12/22 01:22:19;;;;;;;1.23;1.13;;;11.80;69.00;;;;;;5066522;28;20205;-70
2020/12/22 01:24:46;;;;;;;1.20;1.20;;;11.80;69.10;;;;;;5065830;28;20205;-71
2020/12/22 01:27:12;;;;;;;1.10;1.00;;;11.80;69.10;;;;;;5065943;28;20212;-71
2020/12/22 01:29:39;;;;;;;1.80;1.30;;;11.80;69.20;;;;;;5065978;28;21142;-70
2020/12/22 01:32:05;;;;;;;1.13;1.03;;;11.80;69.30;;;;;;5065646;28;20233;-71
2020/12/22 01:34:32;;;;;;;0.87;0.87;;;11.90;69.40;;;;;;5067244;28;20236;-71
2020/12/22 01:36:58;;;;;;;1.10;1.00;;;11.90;69.50;;;;;;5065702;28;20209;-71
2020/12/22 01:39:25;;;;;;;1.00;1.00;;;11.90;69.50;;;;;;5067536;28;20237;-70
2020/12/22 01:41:51;;;;;;;0.97;0.97;;;11.90;69.50;;;;;;5065890;28;20279;-71
2020/12/22 01:44:18;;;;;;;0.90;0.90;;;12.00;69.70;;;;;;5066703;28;20207;-71
2020/12/22 01:46:48;;;;;;;0.87;0.87;;;12.00;69.60;;;;;;5065549;28;20266;-71
2020/12/22 01:49:18;;;;;;;0.80;0.80;;;12.00;69.80;;;;;;5064978;28;20232;-71
2020/12/22 01:51:47;;;;;;;0.83;0.77;;;12.10;69.80;;;;;;5065194;28;20324;-72
2020/12/22 01:54:14;;;;;;;1.03;0.80;;;12.10;69.80;;;;;;5068545;28;20278;-71
2020/12/22 01:56:42;;;;;;;1.17;1.07;;;12.10;69.80;;;;;;5058937;28;20266;-72
2020/12/22 01:59:08;;;;;;;1.00;0.90;;;12.10;69.70;;;;;;5064925;28;20220;-71
2020/12/22 02:01:36;;;;;;;0.80;0.80;;;12.20;69.80;;;;;;5064104;28;20216;-71
2020/12/22 02:04:06;;;;;;;0.90;0.90;;;12.20;69.70;;;;;;5065818;28;20223;-71
2020/12/22 02:06:34;;;;;;;0.90;0.90;;;12.20;69.70;;;;;;5067434;28;20212;-71
2020/12/22 02:09:04;;;;;;;0.73;0.73;;;12.20;70.50;;;;;;5066224;28;20574;-71
2020/12/22 02:11:33;;;;;;;0.90;0.90;;;12.30;69.80;;;;;;5063990;28;20292;-71
2020/12/22 02:14:02;;;;;;;1.00;1.00;;;12.30;69.80;;;;;;5065502;28;20213;-71
2020/12/22 02:16:28;;;;;;;0.80;0.80;;;12.30;69.90;;;;;;5067139;28;20205;-71
2020/12/22 02:18:56;;;;;;;0.83;0.83;;;12.30;69.80;;;;;;5065320;28;20244;-71
2020/12/22 02:21:24;;;;;;;0.90;0.90;;;12.40;70.00;;;;;;5064114;28;20205;-72
2020/12/22 02:23:52;;;;;;;0.67;0.67;;;12.40;70.00;;;;;;5067014;28;20209;-71
2020/12/22 02:26:19;;;;;;;0.90;0.90;;;12.40;70.00;;;;;;5066173;28;20312;-71
2020/12/22 02:28:46;;;;;;;1.27;0.90;;;12.40;70.10;;;;;;5067062;28;20205;-71
2020/12/22 02:31:13;;;;;;;1.13;1.03;;;12.40;70.20;;;;;;5065344;28;20674;-72
2020/12/22 02:33:39;;;;;;;1.00;0.90;;;12.40;70.30;;;;;;5066153;28;20722;-72
2020/12/22 02:36:10;;;;;;;0.90;0.90;;;12.50;70.40;;;;;;5064759;28;20201;-72
2020/12/22 02:38:37;;;;;;;1.10;0.80;;;12.50;70.60;;;;;;5065860;28;20753;-71
2020/12/22 02:41:05;;;;;;;0.73;0.73;;;12.50;70.50;;;;;;5064267;28;20587;-72
2020/12/22 02:43:31;;;;;;;0.90;0.90;;;12.50;70.50;;;;;;5066877;28;20202;-71
2020/12/22 02:45:58;;;;;;;0.90;0.90;;;12.60;70.50;;;;;;5068036;28;20205;-71
2020/12/22 02:48:26;;;;;;;1.07;1.07;;;12.60;70.60;;;;;;5065817;28;20201;-71
2020/12/22 02:50:53;;;;;;;1.10;1.00;;;12.60;70.50;;;;;;5064768;28;20312;-71
2020/12/22 02:53:19;;;;;;;0.70;0.70;;;12.60;70.60;;;;;;5067112;28;20224;-71
2020/12/22 02:55:47;;;;;;;0.70;0.70;;;12.60;70.40;;;;;;5065108;28;20204;-72
2020/12/22 02:58:14;;;;;;;1.10;1.00;;;12.60;70.30;;;;;;5065664;28;20216;-71
2020/12/22 03:00:42;;;;;;;0.70;0.70;;;12.60;70.10;;;;;;5065118;28;20224;-72
2020/12/22 03:03:09;;;;;;;0.70;0.70;;;12.60;70.10;;;;;;5064939;28;20224;-71
2020/12/22 03:05:35;;;;;;;0.87;0.83;;;12.60;70.00;;;;;;5065942;28;20205;-72
2020/12/22 03:08:02;;;;;;;0.80;0.80;;;12.60;70.00;;;;;;5065400;28;20216;-71
2020/12/22 03:10:28;;;;;;;0.80;0.80;;;12.50;69.90;;;;;;5065196;28;20232;-71
2020/12/22 03:12:56;;;;;;;0.80;0.80;;;12.50;69.80;;;;;;5064270;28;20224;-71
2020/12/22 03:15:22;;;;;;;0.60;0.60;;;12.50;69.80;;;;;;5064633;28;20209;-71
2020/12/22 03:17:49;;;;;;;0.80;0.80;;;12.50;69.80;;;;;;5065232;28;20273;-71
2020/12/22 03:20:15;;;;;;;1.03;0.90;;;12.40;69.80;;;;;;5063027;28;20228;-71
2020/12/22 03:22:42;;;;;;;0.70;0.70;;;12.40;70.00;;;;;;5064431;28;21029;-71
2020/12/22 03:25:11;;;;;;;0.70;0.70;;;12.40;70.20;;;;;;5065604;28;20297;-71
2020/12/22 03:27:38;;;;;;;0.53;0.53;;;12.40;70.30;;;;;;5064676;28;20203;-72
2020/12/22 03:30:09;;;;;;;0.70;0.70;;;12.40;70.40;;;;;;5064556;28;20236;-72
2020/12/22 03:32:36;;;;;;;0.70;0.70;;;12.40;70.50;;;;;;5064469;28;20648;-71
2020/12/22 03:35:03;;;;;;;0.80;0.80;;;12.40;70.50;;;;;;5065143;28;20208;-71
2020/12/22 03:37:29;;;;;;;0.80;0.80;;;12.40;70.70;;;;;;5052180;28;20620;-71
2020/12/22 03:39:59;;;;;;;0.87;0.77;;;12.40;70.90;;;;;;5064707;28;20224;-72
2020/12/22 03:42:26;;;;;;;0.70;0.70;;;12.40;71.00;;;;;;5063845;28;20226;-71
2020/12/22 03:44:53;;;;;;;0.70;0.70;;;12.50;71.30;;;;;;5065486;28;20205;-71
2020/12/22 03:47:20;;;;;;;0.67;0.67;;;12.50;71.40;;;;;;5066555;28;20224;-71
2020/12/22 03:49:47;;;;;;;0.60;0.60;;;12.50;71.40;;;;;;5069165;28;20255;-70
2020/12/22 03:52:13;;;;;;;0.60;0.60;;;12.60;71.50;;;;;;5070028;28;20235;-71
2020/12/22 03:54:39;;;;;;;1.17;1.07;;;12.60;71.60;;;;;;5068394;28;20204;-71
2020/12/22 03:57:06;;;;;;;0.70;0.70;;;12.60;71.70;;;;;;5067876;28;20205;-72
2020/12/22 03:59:34;;;;;;;0.60;0.60;;;12.70;71.80;;;;;;5069425;28;20280;-71
2020/12/22 04:02:01;;;;;;;0.50;0.50;;;12.70;71.80;;;;;;5065943;28;20207;-71
2020/12/22 04:04:28;;;;;;;0.60;0.60;;;12.80;71.90;;;;;;5068806;28;20585;-70
2020/12/22 04:06:55;;;;;;;0.50;0.50;;;12.80;71.90;;;;;;5070520;28;20205;-71
2020/12/22 04:09:23;;;;;;;0.63;0.60;;;12.90;71.90;;;;;;5070330;28;20221;-71
2020/12/22 04:11:51;;;;;;;0.50;0.50;;;12.90;71.80;;;;;;5064997;28;20319;-72
2020/12/22 04:14:19;;;;;;;0.60;0.60;;;13.00;71.70;;;;;;5070195;28;20215;-72
2020/12/22 04:16:47;;;;;;;0.53;0.47;;;13.00;71.70;;;;;;5070224;28;20282;-71
2020/12/22 04:19:14;;;;;;;0.63;0.63;;;13.00;71.60;;;;;;5079390;22;20728;-69
2020/12/22 04:21:42;;;;;;;0.50;0.50;;;13.10;71.70;;;;;;5066272;28;20208;-69
2020/12/22 04:24:08;;;;;;;0.50;0.50;;;13.10;71.60;;;;;;5065943;28;20205;-70
2020/12/22 04:26:35;;;;;;;0.50;0.50;;;13.20;71.70;;;;;;5069397;28;20200;-71
2020/12/22 04:29:03;;;;;;;0.70;0.70;;;13.20;71.50;;;;;;5063676;28;20268;-70
2020/12/22 04:31:29;;;;;;;0.60;0.60;;;13.20;71.40;;;;;;5056033;28;20682;-71
2020/12/22 04:33:57;;;;;;;0.40;0.40;;;13.20;71.20;;;;;;5058150;28;20602;-71
2020/12/22 04:36:25;;;;;;;0.47;0.47;;;13.30;71.10;;;;;;5057004;28;20216;-70
2020/12/22 04:38:55;;;;;;;0.43;0.43;;;13.30;71.00;;;;;;5055708;28;20714;-71
2020/12/22 04:41:23;;;;;;;0.40;0.40;;;13.30;71.10;;;;;;5055996;28;20217;-71
2020/12/22 04:43:52;;;;;;;0.57;0.57;;;13.30;71.10;;;;;;5058746;28;20637;-71
2020/12/22 04:46:21;;;;;;;0.50;0.50;;;13.40;72.00;;;;;;5058629;28;20205;-70
2020/12/22 04:48:55;;;;;;;0.50;0.50;;;13.40;71.00;;;;;;5055600;28;20225;-71
2020/12/22 04:51:22;;;;;;;0.40;0.40;;;13.40;70.70;;;;;;5056992;28;20201;-71
2020/12/22 04:53:50;;;;;;;0.50;0.50;;;13.40;70.20;;;;;;5058727;28;20252;-71
2020/12/22 04:56:20;;;;;;;0.60;0.60;;;13.40;70.00;;;;;;5060874;28;20220;-71
2020/12/22 04:58:47;;;;;;;0.50;0.50;;;13.40;69.80;;;;;;5054367;28;20228;-71
2020/12/22 05:01:15;;;;;;;0.40;0.40;;;13.40;69.70;;;;;;5056378;28;21100;-70
2020/12/22 05:03:42;;;;;;;0.50;0.50;;;13.30;69.60;;;;;;5055352;28;20205;-70
2020/12/22 05:06:09;;;;;;;0.40;0.40;;;13.30;69.50;;;;;;5056627;28;20300;-71
2020/12/22 05:08:38;;;;;;;0.43;0.43;;;13.20;69.40;;;;;;5059126;28;20661;-70
2020/12/22 05:11:04;;;;;;;0.40;0.40;;;13.20;69.40;;;;;;5055225;28;20252;-70
2020/12/22 05:13:32;;;;;;;0.40;0.40;;;13.20;69.40;;;;;;5059419;28;20236;-70
2020/12/22 05:15:58;;;;;;;0.50;0.50;;;13.10;69.60;;;;;;5056902;28;20206;-71
2020/12/22 05:18:26;;;;;;;0.40;0.40;;;13.10;69.90;;;;;;5056680;28;20208;-70
2020/12/22 05:20:56;;;;;;;0.33;0.33;;;13.10;70.20;;;;;;5057163;28;20209;-70
2020/12/22 05:23:23;;;;;;;0.50;0.50;;;13.10;70.50;;;;;;5060071;28;20658;-70
2020/12/22 05:25:51;;;;;;;1.23;0.60;;;13.20;70.80;;;;;;5056455;28;20671;-70
2020/12/22 05:29:09;;;;;;;;;;;;;;;;;;;;;
2020/12/22 05:34:39;;;;;;;0.40;0.40;;;13.40;70.80;;;;;;5036615;28;20197;-70
2020/12/22 05:37:09;;;;;;;1.13;0.33;;;13.50;70.60;;;;;;5057398;28;20205;-70
2020/12/22 05:39:38;;;;;;;0.40;0.40;;;13.50;70.40;;;;;;5057802;28;20228;-71
2020/12/22 05:42:13;;;;;;;0.30;0.30;;;13.60;70.30;;;;;;5054884;28;20667;-71
2020/12/22 05:44:46;;;;;;;0.60;0.37;;;13.70;70.10;;;;;;5056367;28;20204;-70
2020/12/22 05:47:16;;;;;;;0.30;0.30;;;13.80;70.10;;;;;;5054873;28;20247;-71
2020/12/22 05:49:54;;;;;;;0.30;0.30;;;13.80;69.90;;;;;;5058392;28;20319;-70
2020/12/22 05:52:23;;;;;;;0.30;0.30;;;13.90;69.70;;;;;;5058708;28;20212;-69
2020/12/22 05:54:51;;;;;;;0.40;0.40;;;13.90;69.60;;;;;;5054776;28;20205;-69
2020/12/22 05:57:27;;;;;;;0.30;0.30;;;14.00;69.50;;;;;;5057381;28;20713;-70
2020/12/22 05:59:55;;;;;;;0.40;0.40;;;14.10;69.30;;;;;;5056808;28;20240;-69
2020/12/22 06:02:30;;;;;;;0.30;0.30;;;14.10;69.10;;;;;;5053201;28;20193;-69
2020/12/22 06:04:58;;;;;;;0.30;0.30;;;14.20;69.00;;;;;;5056672;28;20205;-69
2020/12/22 06:07:26;;;;;;;0.20;0.20;;;14.20;68.90;;;;;;5058337;28;20213;-70
2020/12/22 06:09:54;;;;;;;0.30;0.30;;;14.30;68.90;;;;;;5053140;28;20656;-70
2020/12/22 06:12:22;;;;;;;1.97;0.40;;;14.30;68.80;;;;;;5053662;28;20229;-69
2020/12/22 06:14:51;;;;;;;0.30;0.30;;;14.40;68.60;;;;;;5055582;28;20224;-71
2020/12/22 06:17:19;;;;;;;0.40;0.40;;;14.40;68.40;;;;;;5053253;28;20716;-69
2020/12/22 06:19:48;;;;;;;0.30;0.30;;;14.40;68.20;;;;;;5051436;28;20237;-70
2020/12/22 06:22:16;;;;;;;0.30;0.30;;;14.50;68.10;;;;;;5054473;28;20209;-69
2020/12/22 06:24:44;;;;;;;0.40;0.40;;;14.50;68.00;;;;;;5054488;28;20705;-71
2020/12/22 06:27:13;;;;;;;0.30;0.30;;;14.60;68.00;;;;;;5055105;28;20209;-69
2020/12/22 06:29:42;;;;;;;0.97;0.40;;;14.60;67.80;;;;;;5052656;28;20258;-69
2020/12/22 06:32:24;;;;;;;0.23;0.23;;;14.60;67.60;;;;;;5054375;28;20682;-68
2020/12/22 06:34:52;;;;;;;0.50;0.30;;;14.70;67.30;;;;;;5054719;28;20205;-70
2020/12/22 06:37:22;;;;;;;0.30;0.30;;;14.70;67.50;;;;;;5054208;28;20685;-69
2020/12/22 06:39:51;;;;;;;0.30;0.30;;;14.70;67.30;;;;;;5055869;28;20225;-68
2020/12/22 06:42:45;;;;;;;0.50;0.40;;;14.80;67.20;;;;;;5056788;28;20666;-70
2020/12/22 06:45:35;;;;;;;0.77;0.40;;;14.80;66.80;;;;;;5055591;28;20255;-69
2020/12/22 06:48:02;;;;;;;0.57;0.40;;;14.80;66.80;;;;;;5055619;28;20636;-69
2020/12/22 06:50:43;;;;;;;0.30;0.30;;;14.90;67.00;;;;;;5056295;28;20247;-69
2020/12/22 06:53:35;;;;;;;0.30;0.30;;;14.90;66.70;;;;;;5055853;28;20241;-69
2020/12/22 06:56:03;;;;;;;0.30;0.30;;;14.90;66.40;;;;;;5053596;28;20229;-69
2020/12/22 06:58:40;;;;;;;0.40;0.40;;;14.90;66.50;;;;;;5055963;28;20213;-69
2020/12/22 07:01:30;;;;;;;0.30;0.30;;;14.90;66.40;;;;;;5055102;28;20288;-69
2020/12/22 07:04:27;;;;;;;0.40;0.40;;;14.90;66.20;;;;;;5054460;28;20207;-68
2020/12/22 07:06:57;;;;;;;0.40;0.40;;;14.90;66.10;;;;;;5013568;28;20265;-69
2020/12/22 07:09:29;;;;;;;0.50;0.50;;;14.90;66.50;;;;;;5047930;28;20315;-67
2020/12/22 07:12:11;;;;;;;0.83;0.60;;;14.90;66.60;;;;;;5055646;28;20205;-69
2020/12/22 07:14:40;;;;;;;0.70;0.50;;;14.90;66.50;;;;;;5055040;28;20204;-67
2020/12/22 07:17:07;;;;;;;0.47;0.30;;;15.00;66.60;;;;;;5056998;28;20194;-69
2020/12/22 07:19:36;;;;;;;0.30;0.30;;;15.00;66.50;;;;;;5056723;28;20332;-69
2020/12/22 07:22:05;;;;;;;0.40;0.40;;;15.10;66.60;;;;;;5054053;28;20246;-68
2020/12/22 07:24:34;;;;;;;0.83;0.30;;;15.10;66.30;;;;;;5057502;28;20211;-68
2020/12/22 07:27:01;;;;;;;0.40;0.40;;;15.20;66.50;;;;;;5051764;28;21743;-67
2020/12/22 07:29:28;;;;;;;0.30;0.30;;;15.20;66.40;;;;;;5056386;28;20222;-66
2020/12/22 07:31:55;;;;;;;0.30;0.30;;;15.30;66.40;;;;;;5054863;28;21132;-67
2020/12/22 07:34:22;;;;;;;0.20;0.20;;;15.30;66.20;;;;;;5056202;28;21761;-66
2020/12/22 07:36:49;;;;;;;0.27;0.23;;;15.40;66.10;;;;;;5055745;28;20278;-66
2020/12/22 07:39:22;;;;;;;0.47;0.30;;;15.40;65.80;;;;;;5054576;28;20658;-66
2020/12/22 07:41:51;;;;;;;1.03;0.30;;;15.50;65.80;;;;;;5053455;28;20204;-66
2020/12/22 07:44:20;;;;;;;0.30;0.30;;;15.50;65.80;;;;;;5054508;28;20331;-67
2020/12/22 07:46:52;;;;;;;0.33;0.33;;;15.60;65.80;;;;;;5055072;28;20212;-67
2020/12/22 07:49:20;;;;;;;0.40;0.40;;;15.60;65.70;;;;;;5053886;28;20229;-69
2020/12/22 07:51:48;;;;;;;0.27;0.27;;;15.70;65.70;;;;;;5055315;28;20589;-67
2020/12/22 07:54:16;;;;;;;0.27;0.27;;;15.70;65.50;;;;;;5056881;28;20540;-68
2020/12/22 07:56:45;;;;;;;0.30;0.30;;;15.80;65.30;;;;;;5056267;28;20435;-68
2020/12/22 07:59:14;;;;;;;0.33;0.33;;;15.90;65.30;;;;;;5054495;28;20645;-68
2020/12/22 08:01:42;;;;;;;0.40;0.40;;;15.90;66.10;;;;;;5053719;28;20219;-67
2020/12/22 08:04:17;;;;;;;0.33;0.33;;;16.00;65.30;;;;;;5053925;28;20220;-69
2020/12/22 08:06:57;;;;;;;0.20;0.20;;;16.10;65.20;;;;;;5054998;28;20246;-68
2020/12/22 08:09:26;;;;;;;0.20;0.20;;;16.20;65.00;;;;;;5056725;28;20332;-68
2020/12/22 08:11:58;;;;;;;0.20;0.20;;;16.30;65.30;;;;;;5049400;28;20891;-68
2020/12/22 08:14:27;;;;;;;0.50;0.50;;;16.30;65.00;;;;;;5053032;28;20577;-68
2020/12/22 08:16:57;;;;;;;1.13;0.37;;;16.50;64.50;;;;;;5053845;28;20205;-65
2020/12/22 08:19:27;;;;;;;0.83;0.43;;;16.50;64.60;;;;;;5055827;28;20237;-67
2020/12/22 08:21:56;;;;;;;0.43;0.40;;;16.60;65.60;;;;;;5055913;28;20214;-67
2020/12/22 08:24:24;;;;;;;0.57;0.40;;;16.70;66.00;;;;;;5056609;28;20212;-68
2020/12/22 08:26:53;;;;;;;0.60;0.40;;;16.80;65.90;;;;;;5054724;28;20327;-68
2020/12/22 08:29:23;;;;;;;0.40;0.40;;;16.90;65.90;;;;;;5056114;28;20218;-67
2020/12/22 08:32:03;;;;;;;0.40;0.40;;;17.00;65.50;;;;;;5056645;28;20209;-67
2020/12/22 08:34:30;;;;;;;0.40;0.40;;;17.10;65.20;;;;;;5056584;28;20209;-68
2020/12/22 08:36:57;;;;;;;0.60;0.60;;;17.20;65.10;;;;;;5062622;28;20213;-68
2020/12/22 08:39:26;;;;;;;0.77;0.33;;;17.40;65.10;;;;;;5060011;28;20661;-67
2020/12/22 08:41:55;;;;;;;0.30;0.30;;;17.50;65.00;;;;;;5060440;28;20264;-68
2020/12/22 08:44:25;;;;;;;0.40;0.40;;;17.60;64.90;;;;;;5058292;28;20229;-70
2020/12/22 08:46:53;;;;;;;0.30;0.30;;;17.70;64.50;;;;;;5058050;28;20209;-69
2020/12/22 08:49:24;;;;;;;0.30;0.30;;;17.80;64.30;;;;;;5056902;28;20225;-69
2020/12/22 08:51:51;;;;;;;0.40;0.30;;;17.90;63.30;;;;;;5053199;28;20310;-66
2020/12/22 08:54:18;;;;;;;0.53;0.50;;;17.90;63.20;;;;;;5056602;28;20590;-67
2020/12/22 08:56:44;;;;;;;0.67;0.27;;;17.90;62.70;;;;;;5055584;28;20248;-67
2020/12/22 08:59:12;;;;;;;0.30;0.30;;;18.00;62.70;;;;;;5056008;28;20233;-68
2020/12/22 09:01:43;;;;;;;0.40;0.40;;;18.00;62.80;;;;;;5051610;28;20251;-67
2020/12/22 09:04:11;;;;;;;0.40;0.40;;;18.00;62.70;;;;;;5057696;28;20609;-68
2020/12/22 09:06:41;;;;;;;0.40;0.40;;;18.10;62.80;;;;;;5055976;28;20287;-68
2020/12/22 09:09:11;;;;;;;0.80;0.30;;;18.20;62.60;;;;;;5054774;28;20737;-64
2020/12/22 09:11:39;;;;;;;0.30;0.30;;;18.20;62.40;;;;;;5050866;28;20209;-66
2020/12/22 09:14:12;;;;;;;0.30;0.30;;;18.30;62.50;;;;;;5053978;28;20209;-66
2020/12/22 09:17:03;;;;;;;0.30;0.30;;;18.40;62.40;;;;;;5057667;28;20682;-66
2020/12/22 09:19:43;;;;;;;0.50;0.50;;;18.50;61.80;;;;;;5056514;28;20264;-67
2020/12/22 09:22:10;;;;;;;0.30;0.30;;;18.60;61.30;;;;;;5054118;28;20205;-65
2020/12/22 09:24:37;;;;;;;0.70;0.40;;;18.70;62.00;;;;;;5058210;28;20304;-66
2020/12/22 09:27:08;;;;;;;0.30;0.30;;;18.80;61.70;;;;;;5056102;28;23424;-65
2020/12/22 09:29:38;;;;;;;0.30;0.30;;;18.90;61.20;;;;;;5054470;28;20226;-66
2020/12/22 09:32:07;;;;;;;0.43;0.40;;;19.00;60.90;;;;;;5055272;28;20831;-66
2020/12/22 09:34:36;;;;;;;0.30;0.30;;;19.00;60.70;;;;;;5057509;28;20205;-66
2020/12/22 09:37:05;;;;;;;0.40;0.40;;;19.10;60.70;;;;;;5055973;28;20205;-66
2020/12/22 09:39:33;;;;;;;0.40;0.40;;;19.10;60.20;;;;;;5057627;28;20246;-67
2020/12/22 09:42:00;;;;;;;0.37;0.37;;;19.10;60.30;;;;;;5057856;28;20216;-67
2020/12/22 09:44:27;;;;;;;0.30;0.30;;;19.10;59.90;;;;;;5058398;28;20228;-65
2020/12/22 09:46:59;;;;;;;0.37;0.37;;;19.00;59.70;;;;;;5058819;28;20213;-66
2020/12/22 09:49:27;;;;;;;0.40;0.40;;;19.00;59.10;;;;;;5054184;28;20268;-67
2020/12/22 09:51:54;;;;;;;0.30;0.30;;;19.00;59.10;;;;;;5057488;28;20300;-67
2020/12/22 09:54:22;;;;;;;0.40;0.40;;;18.90;59.40;;;;;;5057931;28;20573;-65
2020/12/22 09:56:50;;;;;;;0.33;0.33;;;18.90;59.60;;;;;;5054424;28;20208;-67
2020/12/22 09:59:18;;;;;;;0.30;0.30;;;18.80;59.60;;;;;;5048669;28;20225;-68
2020/12/22 10:01:45;;;;;;;0.33;0.33;;;18.80;59.70;;;;;;5056467;28;20212;-65
2020/12/22 10:04:12;;;;;;;0.40;0.40;;;18.80;59.90;;;;;;5054915;28;20231;-68
2020/12/22 10:06:40;;;;;;;0.40;0.40;;;18.80;60.20;;;;;;5058637;28;20239;-67
2020/12/22 10:09:06;;;;;;;0.30;0.23;;;18.80;60.20;;;;;;5055564;28;20295;-68
2020/12/22 10:11:35;;;;;;;0.30;0.30;;;18.90;60.00;;;;;;5052206;28;20217;-66
2020/12/22 10:14:03;;;;;;;0.40;0.40;;;19.00;60.00;;;;;;5058043;28;20193;-67
2020/12/22 10:16:29;;;;;;;0.47;0.40;;;19.10;59.90;;;;;;5054273;28;20283;-66
2020/12/22 10:18:56;;;;;;;0.40;0.40;;;19.10;59.70;;;;;;5056423;28;20721;-67
2020/12/22 10:21:22;;;;;;;0.40;0.40;;;19.20;59.50;;;;;;5054903;28;20209;-67
2020/12/22 10:23:51;;;;;;;0.50;0.50;;;19.20;59.30;;;;;;5055763;28;20236;-67
2020/12/22 10:26:20;;;;;;;0.40;0.40;;;19.20;59.10;;;;;;5056066;28;20205;-70
2020/12/22 10:28:49;;;;;;;0.57;0.50;;;19.20;59.10;;;;;;5052556;28;20596;-67
2020/12/22 10:31:17;;;;;;;0.83;0.50;;;19.20;59.10;;;;;;5054509;28;20209;-67
2020/12/22 10:33:44;;;;;;;0.53;0.40;;;19.20;59.10;;;;;;5056330;28;20210;-67
2020/12/22 10:36:13;;;;;;;1.87;0.33;;;19.10;59.10;;;;;;5057768;28;20209;-67
2020/12/22 10:38:39;;;;;;;1.53;0.50;;;19.10;59.00;;;;;;5054804;28;20224;-68
2020/12/22 10:41:07;;;;;;;0.47;0.40;;;19.10;58.90;;;;;;5052957;28;20205;-69
2020/12/22 10:43:33;;;;;;;3.60;0.40;;;19.00;58.30;;;;;;5055758;28;20282;-68
2020/12/22 10:46:02;;;;;;;0.30;0.30;;;19.00;58.70;;;;;;5052218;28;20217;-68
2020/12/22 10:48:30;;;;;;;0.40;0.40;;;18.90;58.50;;;;;;5057777;28;20212;-68
2020/12/22 10:50:56;;;;;;;0.30;0.30;;;18.90;58.70;;;;;;5056446;28;20209;-68
2020/12/22 10:53:25;;;;;;;0.30;0.30;;;18.80;58.80;;;;;;5050185;28;20253;-67
2020/12/22 10:55:52;;;;;;;0.30;0.30;;;18.80;59.40;;;;;;5051871;28;20215;-67
2020/12/22 10:58:19;;;;;;;0.43;0.40;;;18.80;59.10;;;;;;5051403;28;20197;-67
2020/12/22 11:00:48;;;;;;;0.30;0.30;;;18.80;58.90;;;;;;5054038;28;20205;-67
2020/12/22 11:03:18;;;;;;;0.33;0.33;;;18.80;58.70;;;;;;5056661;28;20608;-67
2020/12/22 11:06:07;;;;;;;0.40;0.40;;;18.80;58.80;;;;;;5052939;28;20591;-69
2020/12/22 11:08:33;;;;;;;0.40;0.40;;;18.80;58.70;;;;;;5054798;28;20213;-68
2020/12/22 11:11:00;;;;;;;0.23;0.23;;;18.80;58.90;;;;;;5055812;28;20285;-68
2020/12/22 11:13:27;;;;;;;0.40;0.30;;;18.70;58.70;;;;;;5055877;28;20212;-70
2020/12/22 11:15:53;;;;;;;0.30;0.30;;;18.70;58.10;;;;;;5052306;28;20209;-69
2020/12/22 11:18:20;;;;;;;1.17;0.30;;;18.80;58.30;;;;;;5055843;28;20210;-69
2020/12/22 11:20:46;;;;;;;0.30;0.30;;;18.70;58.20;;;;;;5055254;28;20217;-70
2020/12/22 11:23:13;;;;;;;0.37;0.37;;;18.70;58.20;;;;;;5055326;28;20721;-70
2020/12/22 11:25:39;;;;;;;0.30;0.30;;;18.70;58.40;;;;;;5058073;28;20213;-71
2020/12/22 11:28:05;;;;;;;0.30;0.30;;;18.70;58.40;;;;;;5044599;28;20206;-67
2020/12/22 11:30:33;;;;;;;2.13;0.33;;;18.60;58.50;;;;;;5050666;28;20228;-66
2020/12/22 11:32:59;;;;;;;0.50;0.50;;;18.60;58.40;;;;;;5054497;28;20205;-67
2020/12/22 11:35:26;;;;;;;0.40;0.40;;;18.60;58.70;;;;;;5055075;28;20216;-66
2020/12/22 11:37:52;;;;;;;0.30;0.30;;;18.50;58.80;;;;;;5046268;28;20201;-64
2020/12/22 11:40:18;;;;;;;0.30;0.30;;;18.50;58.90;;;;;;5051709;28;20222;-66
2020/12/22 11:42:45;;;;;;;0.30;0.30;;;18.40;59.20;;;;;;5054684;28;20225;-63
2020/12/22 11:45:11;;;;;;;0.40;0.40;;;18.40;59.40;;;;;;5055198;28;20207;-67
2020/12/22 11:47:40;;;;;;;0.30;0.30;;;18.30;59.60;;;;;;5052854;28;20233;-67
2020/12/22 11:50:07;;;;;;;0.30;0.30;;;18.30;59.50;;;;;;5056667;28;20234;-66
2020/12/22 11:52:33;;;;;;;0.30;0.30;;;18.30;59.70;;;;;;5056846;28;20865;-65
2020/12/22 11:54:59;;;;;;;0.20;0.20;;;18.30;59.60;;;;;;5049687;28;20255;-66
2020/12/22 11:57:26;;;;;;;0.60;0.60;;;18.30;59.70;;;;;;5056525;28;20211;-63
2020/12/22 11:59:52;;;;;;;0.30;0.30;;;18.20;59.50;;;;;;5050640;28;20225;-66
2020/12/22 12:02:19;;;;;;;0.30;0.30;;;18.20;59.40;;;;;;5053335;28;20212;-66
2020/12/22 12:04:46;;;;;;;0.40;0.30;;;18.20;59.60;;;;;;5054445;28;20229;-66
2020/12/22 12:07:13;;;;;;;0.30;0.30;;;18.20;59.60;;;;;;5054357;28;20206;-65
2020/12/22 12:09:39;;;;;;;0.40;0.40;;;18.20;59.70;;;;;;5059682;28;20237;-67
2020/12/22 12:12:05;;;;;;;0.30;0.30;;;18.20;59.60;;;;;;5056971;28;20201;-67
2020/12/22 12:14:32;;;;;;;0.40;0.40;;;18.30;59.70;;;;;;5059958;28;20220;-66
2020/12/22 12:16:58;;;;;;;0.30;0.30;;;18.30;59.70;;;;;;5060449;28;20216;-66
2020/12/22 12:19:26;;;;;;;0.40;0.40;;;18.40;59.40;;;;;;5059814;28;20256;-64
2020/12/22 12:21:56;;;;;;;0.40;0.40;;;18.40;59.20;;;;;;5061053;28;20240;-67
2020/12/22 12:24:22;;;;;;;0.40;0.40;;;18.50;59.20;;;;;;5059856;28;20290;-67
2020/12/22 12:26:49;;;;;;;0.43;0.33;;;18.50;59.20;;;;;;5061595;28;20209;-66
2020/12/22 12:29:15;;;;;;;0.40;0.40;;;18.50;59.10;;;;;;5056016;28;20249;-65
2020/12/22 12:31:42;;;;;;;0.50;0.40;;;18.50;59.00;;;;;;5054786;28;20208;-65
2020/12/22 12:34:09;;;;;;;0.30;0.30;;;18.60;59.00;;;;;;5052707;28;20762;-69
2020/12/22 12:36:35;;;;;;;0.40;0.40;;;18.60;58.80;;;;;;5048048;28;20213;-69
2020/12/22 12:39:03;;;;;;;0.30;0.30;;;18.60;58.70;;;;;;5057074;28;20225;-67
2020/12/22 12:41:29;;;;;;;0.87;0.60;;;18.60;58.70;;;;;;5056986;28;20240;-69
2020/12/22 12:43:56;;;;;;;0.83;0.40;;;18.60;58.80;;;;;;5058853;28;20264;-67
2020/12/22 12:46:22;;;;;;;0.30;0.30;;;18.70;58.80;;;;;;5053977;28;20202;-70
2020/12/22 12:48:49;;;;;;;0.40;0.40;;;18.70;59.00;;;;;;5056039;28;20225;-65
2020/12/22 12:51:15;;;;;;;0.33;0.33;;;18.70;58.60;;;;;;5053194;28;20212;-66
2020/12/22 12:53:42;;;;;;;1.77;0.70;;;18.70;58.60;;;;;;5049911;28;20228;-69
2020/12/22 12:56:14;;;;;;;0.70;0.50;;;18.80;58.80;;;;;;5051811;28;20268;-67
2020/12/22 12:58:41;;;;;;;0.40;0.40;;;18.90;58.50;;;;;;5052485;28;20221;-69